Time;durP1;ratioP1;P1;durP2;ratioP2;P2;SDS_P1;SDS_P2;PMS_P1;PMS_P2;Temp;Humidity;BMP_temperature;BMP_pressure;BME280_temperature;BME280_humidity;BME280_pressure;Samples;Min_cycle;Max_cycle;Signal;HPM_P1;HPM_P2
2023/01/01 00:00:06;;;;;;;24.75;13.82;;;;;;;;;;5023992;28;20041;-76
2023/01/01 00:02:33;;;;;;;26.52;11.70;;;;;;;;;;5054499;28;20576;-75
2023/01/01 00:04:59;;;;;;;29.20;14.70;;;;;;;;;;5053937;28;22105;-76
2023/01/01 00:07:25;;;;;;;18.55;8.88;;;;;;;;;;5076106;27;20587;-76
2023/01/01 00:12:36;;;;;;;19.02;11.27;;;;;;;;;;5051994;28;20096;-76
2023/01/01 00:15:02;;;;;;;21.60;10.80;;;;;;;;;;5044876;28;20326;-76
2023/01/01 00:17:29;;;;;;;24.17;14.40;;;;;;;;;;5043574;28;20043;-76
2023/01/01 00:19:55;;;;;;;26.23;12.55;;;;;;;;;;5043389;28;21562;-76
2023/01/01 00:22:21;;;;;;;19.58;9.45;;;;;;;;;;5070528;28;20051;-76
2023/01/01 00:24:47;;;;;;;17.98;9.38;;;;;;;;;;5087376;28;20055;-76
2023/01/01 00:27:13;;;;;;;19.77;9.57;;;;;;;;;;5085630;28;20036;-76
2023/01/01 00:29:39;;;;;;;23.10;8.77;;;;;;;;;;5083640;28;20085;-76
2023/01/01 00:32:05;;;;;;;15.73;8.90;;;;;;;;;;5084330;28;20048;-76
2023/01/01 00:34:31;;;;;;;16.67;8.98;;;;;;;;;;5061112;28;20056;-80
2023/01/01 00:36:57;;;;;;;19.10;9.77;;;;;;;;;;5059455;28;20040;-76
2023/01/01 00:39:23;;;;;;;20.08;12.13;;;;;;;;;;5060452;28;20618;-76
2023/01/01 00:41:49;;;;;;;18.80;9.27;;;;;;;;;;5041512;28;20373;-76
2023/01/01 00:44:16;;;;;;;15.23;7.75;;;;;;;;;;5060494;28;20043;-76
2023/01/01 00:46:42;;;;;;;16.98;9.43;;;;;;;;;;5045045;28;20441;-76
2023/01/01 00:49:08;;;;;;;22.10;11.88;;;;;;;;;;5058653;28;20066;-76
2023/01/01 00:51:34;;;;;;;21.63;14.23;;;;;;;;;;5058434;28;20117;-76
2023/01/01 00:54:00;;;;;;;22.13;12.20;;;;;;;;;;5046452;28;20129;-76
2023/01/01 00:56:26;;;;;;;23.05;11.82;;;;;;;;;;5058295;28;21705;-76
2023/01/01 00:58:52;;;;;;;23.58;14.00;;;;;;;;;;5055309;28;20045;-76
2023/01/01 01:01:18;;;;;;;20.98;10.15;;;;;;;;;;5043952;28;20137;-76
2023/01/01 01:03:44;;;;;;;20.85;12.15;;;;;;;;;;5057559;28;20032;-76
2023/01/01 01:06:11;;;;;;;23.60;12.90;;;;;;;;;;5040101;28;20054;-76
2023/01/01 01:08:39;;;;;;;26.85;12.68;;;;;;;;;;5058891;28;20139;-76
2023/01/01 01:11:10;;;;;;;19.40;12.05;;;;;;;;;;5073962;27;20089;-76
2023/01/01 01:13:36;;;;;;;24.17;12.50;;;;;;;;;;5057457;28;20040;-76
2023/01/01 01:16:08;;;;;;;23.45;12.10;;;;;;;;;;5040538;28;20056;-76
2023/01/01 01:18:34;;;;;;;21.55;12.95;;;;;;;;;;5041798;28;20118;-76
2023/01/01 01:21:00;;;;;;;23.83;13.77;;;;;;;;;;5059514;28;20484;-76
2023/01/01 01:23:26;;;;;;;25.83;15.05;;;;;;;;;;5057278;28;20139;-76
2023/01/01 01:25:52;;;;;;;31.38;16.88;;;;;;;;;;5057706;28;20036;-76
2023/01/01 01:28:18;;;;;;;26.42;17.23;;;;;;;;;;5072223;28;20048;-76
2023/01/01 01:30:44;;;;;;;28.67;19.58;;;;;;;;;;5044262;28;20051;-76
2023/01/01 01:33:11;;;;;;;33.85;18.67;;;;;;;;;;5042520;28;20044;-75
2023/01/01 01:35:37;;;;;;;42.30;22.20;;;;;;;;;;5072798;28;20090;-76
2023/01/01 01:38:04;;;;;;;41.92;22.65;;;;;;;;;;5059248;28;20040;-76
2023/01/01 01:40:30;;;;;;;36.85;24.75;;;;;;;;;;5060090;28;20113;-76
2023/01/01 01:42:56;;;;;;;32.67;22.08;;;;;;;;;;5026317;28;20134;-77
2023/01/01 01:45:22;;;;;;;31.65;22.35;;;;;;;;;;5043104;28;20388;-76
2023/01/01 01:47:50;;;;;;;41.70;24.33;;;;;;;;;;5021604;28;20047;-77
2023/01/01 01:50:25;;;;;;;48.70;25.92;;;;;;;;;;5042083;28;20036;-76
2023/01/01 01:53:03;;;;;;;43.58;27.15;;;;;;;;;;5046105;28;20040;-76
2023/01/01 01:55:32;;;;;;;47.53;32.15;;;;;;;;;;5056476;28;20056;-74
2023/01/01 01:57:58;;;;;;;48.85;34.08;;;;;;;;;;5056312;28;20043;-75
2023/01/01 02:00:24;;;;;;;49.45;33.95;;;;;;;;;;5057747;28;20050;-76
2023/01/01 02:02:53;;;;;;;51.85;31.23;;;;;;;;;;5055066;28;20508;-76
2023/01/01 02:05:20;;;;;;;58.65;37.97;;;;;;;;;;5041735;28;20043;-76
2023/01/01 02:07:46;;;;;;;58.20;38.45;;;;;;;;;;5057649;28;20075;-77
2023/01/01 02:10:12;;;;;;;66.68;43.50;;;;;;;;;;5048914;28;20055;-79
2023/01/01 02:12:38;;;;;;;60.55;39.95;;;;;;;;;;5077417;28;20024;-79
2023/01/01 02:15:05;;;;;;;63.22;42.90;;;;;;;;;;5065439;28;20062;-80
2023/01/01 02:17:34;;;;;;;57.00;38.35;;;;;;;;;;5068148;28;20385;-80
2023/01/01 02:20:00;;;;;;;60.20;41.95;;;;;;;;;;5040068;28;20056;-81
2023/01/01 02:22:35;;;;;;;65.93;45.90;;;;;;;;;;5038599;28;20082;-80
2023/01/01 02:25:05;;;;;;;65.85;47.80;;;;;;;;;;5040728;28;20040;-81
2023/01/01 02:27:37;;;;;;;73.30;48.15;;;;;;;;;;5041668;28;20063;-80
2023/01/01 02:30:05;;;;;;;77.70;51.85;;;;;;;;;;5061506;28;20049;-81
2023/01/01 02:32:35;;;;;;;76.57;48.00;;;;;;;;;;5048028;28;21002;-81
2023/01/01 02:37:53;;;;;;;81.72;49.85;;;;;;;;;;5059544;28;20211;-80
2023/01/01 02:40:20;;;;;;;82.10;56.20;;;;;;;;;;5053491;28;20427;-80
2023/01/01 02:42:47;;;;;;;82.57;56.28;;;;;;;;;;5065309;28;20040;-81
2023/01/01 02:45:14;;;;;;;80.05;54.05;;;;;;;;;;5035666;28;20051;-81
2023/01/01 02:47:40;;;;;;;83.78;55.80;;;;;;;;;;5037255;28;20044;-80
2023/01/01 02:50:11;;;;;;;76.13;54.00;;;;;;;;;;5036564;28;20099;-80
2023/01/01 02:53:01;;;;;;;81.32;56.63;;;;;;;;;;5040262;28;20047;-80
2023/01/01 02:55:36;;;;;;;82.65;56.08;;;;;;;;;;5039938;28;20143;-79
2023/01/01 03:00:18;;;;;;;63.60;45.20;;;;;;;;;;5045755;28;20039;-79
2023/01/01 03:00:52;;;;;;;62.70;41.08;;;;;;;;;;5063173;28;20892;-79
2023/01/01 03:03:25;;;;;;;68.60;43.78;;;;;;;;;;5064332;28;20098;-79
2023/01/01 03:08:45;;;;;;;56.60;33.90;;;;;;;;;;5067711;28;20055;-78
2023/01/01 03:11:14;;;;;;;60.40;38.92;;;;;;;;;;5051817;28;20110;-80
2023/01/01 03:14:00;;;;;;;60.25;41.47;;;;;;;;;;5044957;28;20051;-79
2023/01/01 03:16:36;;;;;;;64.43;44.92;;;;;;;;;;5042556;28;20048;-79
2023/01/01 03:19:11;;;;;;;71.60;48.00;;;;;;;;;;5061381;28;20048;-79
2023/01/01 03:21:42;;;;;;;74.38;49.13;;;;;;;;;;5046328;28;20047;-78
2023/01/01 03:24:26;;;;;;;86.95;53.13;;;;;;;;;;5057397;28;20509;-77
2023/01/01 03:26:54;;;;;;;69.80;42.30;;;;;;;;;;5058682;28;20090;-79
2023/01/01 03:29:21;;;;;;;74.47;48.08;;;;;;;;;;5059628;28;20044;-80
2023/01/01 03:31:48;;;;;;;65.70;39.65;;;;;;;;;;5048891;28;20044;-81
2023/01/01 03:34:17;;;;;;;75.40;43.13;;;;;;;;;;5048651;28;20089;-81
2023/01/01 03:36:46;;;;;;;60.33;37.00;;;;;;;;;;5048045;28;20629;-80
2023/01/01 03:39:15;;;;;;;60.17;37.90;;;;;;;;;;5059788;28;20047;-80
2023/01/01 03:41:44;;;;;;;48.08;31.30;;;;;;;;;;5042768;28;20087;-76
2023/01/01 03:44:26;;;;;;;47.33;26.92;;;;;;;;;;5044178;28;20141;-77
2023/01/01 03:46:53;;;;;;;46.08;26.92;;;;;;;;;;5045336;28;20123;-76
2023/01/01 03:49:19;;;;;;;44.65;26.42;;;;;;;;;;5042647;28;20048;-77
2023/01/01 03:52:04;;;;;;;35.67;22.40;;;;;;;;;;5051065;28;20073;-77
2023/01/01 03:54:33;;;;;;;43.20;25.17;;;;;;;;;;5091105;28;20124;-77
2023/01/01 03:57:06;;;;;;;40.00;23.17;;;;;;;;;;5089987;28;20783;-77
2023/01/01 03:59:55;;;;;;;35.13;20.15;;;;;;;;;;5075603;28;20133;-77
2023/01/01 04:02:25;;;;;;;29.70;15.68;;;;;;;;;;5066274;28;20044;-76
2023/01/01 04:04:52;;;;;;;27.75;14.48;;;;;;;;;;5060759;28;20087;-76
2023/01/01 04:07:18;;;;;;;27.75;14.93;;;;;;;;;;5044532;28;20479;-78
2023/01/01 04:09:47;;;;;;;19.58;13.27;;;;;;;;;;5050194;28;20504;-77
2023/01/01 04:12:14;;;;;;;28.58;15.35;;;;;;;;;;5055777;28;20484;-76
2023/01/01 04:14:41;;;;;;;20.95;13.35;;;;;;;;;;5058469;28;20389;-78
2023/01/01 04:17:09;;;;;;;25.98;12.90;;;;;;;;;;5058916;28;20047;-76
2023/01/01 04:19:35;;;;;;;16.77;11.75;;;;;;;;;;5076708;27;21406;-77
2023/01/01 04:22:01;;;;;;;21.75;11.52;;;;;;;;;;5060195;28;20051;-77
2023/01/01 04:24:28;;;;;;;22.92;12.75;;;;;;;;;;5046494;28;20380;-77
2023/01/01 04:26:54;;;;;;;20.17;12.52;;;;;;;;;;5056075;28;20036;-77
2023/01/01 04:29:21;;;;;;;17.13;8.63;;;;;;;;;;5055281;28;21848;-78
2023/01/01 04:31:47;;;;;;;17.52;9.05;;;;;;;;;;5039813;28;20071;-77
2023/01/01 04:34:13;;;;;;;15.93;7.43;;;;;;;;;;5050453;28;20038;-77
2023/01/01 04:36:40;;;;;;;12.38;6.82;;;;;;;;;;5052209;28;20044;-77
2023/01/01 04:39:06;;;;;;;16.00;6.85;;;;;;;;;;5050575;28;20036;-77
2023/01/01 04:41:32;;;;;;;18.38;6.88;;;;;;;;;;5036203;28;21023;-77
2023/01/01 04:43:58;;;;;;;15.27;6.32;;;;;;;;;;5053214;28;20035;-77
2023/01/01 04:46:24;;;;;;;13.45;5.68;;;;;;;;;;5053503;28;20044;-77
2023/01/01 04:48:50;;;;;;;13.48;4.80;;;;;;;;;;5053846;28;20044;-77
2023/01/01 04:51:17;;;;;;;10.90;4.63;;;;;;;;;;5039724;28;20047;-77
2023/01/01 04:53:44;;;;;;;11.15;4.00;;;;;;;;;;5060409;28;20040;-77
2023/01/01 04:56:14;;;;;;;7.88;3.28;;;;;;;;;;5047338;28;20048;-77
2023/01/01 04:58:41;;;;;;;12.18;4.28;;;;;;;;;;5040803;28;20044;-77
2023/01/01 05:01:07;;;;;;;14.88;3.58;;;;;;;;;;5053014;28;20520;-77
2023/01/01 05:03:33;;;;;;;11.80;4.38;;;;;;;;;;5041678;28;20108;-77
2023/01/01 05:06:00;;;;;;;20.67;5.50;;;;;;;;;;5056510;28;20058;-77
2023/01/01 05:08:28;;;;;;;14.23;4.63;;;;;;;;;;5058949;28;20070;-77
2023/01/01 05:10:58;;;;;;;28.05;5.82;;;;;;;;;;5041717;28;21709;-77
2023/01/01 05:13:24;;;;;;;21.27;5.55;;;;;;;;;;5036715;28;20048;-74
2023/01/01 05:15:50;;;;;;;15.82;5.03;;;;;;;;;;5058073;28;20047;-76
2023/01/01 05:18:16;;;;;;;16.40;6.03;;;;;;;;;;5054675;28;20044;-75
2023/01/01 05:20:43;;;;;;;18.27;5.85;;;;;;;;;;5038288;28;20044;-75
2023/01/01 05:23:09;;;;;;;18.40;6.82;;;;;;;;;;5058038;28;20119;-76
2023/01/01 05:25:35;;;;;;;14.65;5.32;;;;;;;;;;5073181;27;20044;-76
2023/01/01 05:28:01;;;;;;;18.80;5.53;;;;;;;;;;5057955;28;20101;-76
2023/01/01 05:30:27;;;;;;;12.65;5.50;;;;;;;;;;5060166;28;20040;-76
2023/01/01 05:32:53;;;;;;;18.50;4.78;;;;;;;;;;5059310;28;20044;-76
2023/01/01 05:35:19;;;;;;;19.45;4.35;;;;;;;;;;5055161;28;20040;-76
2023/01/01 05:37:45;;;;;;;14.80;5.22;;;;;;;;;;5046057;28;20043;-76
2023/01/01 05:40:11;;;;;;;13.15;4.97;;;;;;;;;;5067351;28;20102;-76
2023/01/01 05:42:37;;;;;;;14.15;3.97;;;;;;;;;;5083232;28;20050;-75
2023/01/01 05:45:04;;;;;;;16.60;3.78;;;;;;;;;;5063197;28;20040;-76
2023/01/01 05:47:30;;;;;;;12.77;4.22;;;;;;;;;;5057570;28;20047;-76
2023/01/01 05:49:56;;;;;;;14.88;3.88;;;;;;;;;;5056174;28;20048;-76
2023/01/01 05:52:22;;;;;;;13.75;3.38;;;;;;;;;;5040698;28;22110;-76
2023/01/01 05:54:48;;;;;;;14.05;2.90;;;;;;;;;;5041340;28;20121;-76
2023/01/01 05:57:14;;;;;;;8.05;2.30;;;;;;;;;;5038931;28;20132;-76
2023/01/01 05:59:40;;;;;;;14.15;3.75;;;;;;;;;;5066440;28;20044;-76
2023/01/01 06:02:06;;;;;;;12.10;3.15;;;;;;;;;;5052204;28;20040;-76
2023/01/01 06:04:32;;;;;;;7.47;2.47;;;;;;;;;;5050203;28;20037;-75
2023/01/01 06:06:58;;;;;;;10.40;2.92;;;;;;;;;;5052360;28;20036;-75
2023/01/01 06:09:25;;;;;;;9.75;3.05;;;;;;;;;;5051454;28;20029;-76
2023/01/01 06:11:51;;;;;;;8.45;2.88;;;;;;;;;;5052590;28;21627;-75
2023/01/01 06:14:17;;;;;;;10.70;3.03;;;;;;;;;;5053107;28;21492;-76
2023/01/01 06:16:43;;;;;;;9.15;2.42;;;;;;;;;;5051046;28;20036;-75
2023/01/01 06:19:09;;;;;;;9.75;2.75;;;;;;;;;;5035931;28;20945;-76
2023/01/01 06:21:35;;;;;;;9.70;2.90;;;;;;;;;;5035856;28;20042;-76
2023/01/01 06:24:01;;;;;;;7.00;2.38;;;;;;;;;;5039041;28;20040;-76
2023/01/01 06:26:31;;;;;;;5.78;1.73;;;;;;;;;;5052667;28;20646;-75
2023/01/01 06:28:58;;;;;;;10.05;2.58;;;;;;;;;;5034431;28;20051;-76
2023/01/01 06:31:24;;;;;;;15.23;3.33;;;;;;;;;;5054334;28;20067;-75
2023/01/01 06:33:50;;;;;;;10.27;1.90;;;;;;;;;;5056345;28;20045;-75
2023/01/01 06:36:18;;;;;;;7.18;2.28;;;;;;;;;;5054980;28;20109;-76
2023/01/01 06:38:45;;;;;;;7.05;1.90;;;;;;;;;;5054181;28;20588;-76
2023/01/01 06:41:13;;;;;;;9.73;2.20;;;;;;;;;;5041732;28;20048;-76
2023/01/01 06:43:39;;;;;;;8.02;1.90;;;;;;;;;;5052879;28;20522;-75
2023/01/01 06:46:07;;;;;;;9.65;2.38;;;;;;;;;;5069702;28;20052;-76
2023/01/01 06:48:34;;;;;;;9.73;2.17;;;;;;;;;;5036990;28;20479;-76
2023/01/01 06:51:07;;;;;;;4.75;1.65;;;;;;;;;;5037122;28;20060;-76
2023/01/01 06:53:33;;;;;;;16.27;2.95;;;;;;;;;;5048141;28;20045;-76
2023/01/01 06:55:59;;;;;;;10.25;2.28;;;;;;;;;;5051808;28;20149;-76
2023/01/01 06:58:26;;;;;;;11.25;1.85;;;;;;;;;;5051383;28;21260;-76
2023/01/01 07:00:52;;;;;;;6.93;1.60;;;;;;;;;;5040422;28;20049;-76
2023/01/01 07:03:18;;;;;;;8.05;1.73;;;;;;;;;;5052649;28;20044;-76
2023/01/01 07:05:44;;;;;;;8.95;2.50;;;;;;;;;;5037389;28;20052;-76
2023/01/01 07:08:10;;;;;;;9.55;1.60;;;;;;;;;;5034035;28;20500;-76
2023/01/01 07:10:36;;;;;;;13.23;2.03;;;;;;;;;;5035329;28;20602;-76
2023/01/01 07:13:02;;;;;;;12.77;2.25;;;;;;;;;;5032877;28;20765;-76
2023/01/01 07:15:30;;;;;;;14.35;2.92;;;;;;;;;;5070542;28;20038;-76
2023/01/01 07:17:56;;;;;;;17.30;2.53;;;;;;;;;;5043218;28;20143;-76
2023/01/01 07:20:22;;;;;;;10.93;1.95;;;;;;;;;;5080171;28;20139;-76
2023/01/01 07:22:48;;;;;;;9.43;2.08;;;;;;;;;;5078564;28;20039;-76
2023/01/01 07:25:15;;;;;;;12.88;2.70;;;;;;;;;;5049494;28;20074;-76
2023/01/01 07:27:41;;;;;;;10.80;2.35;;;;;;;;;;5046290;28;20144;-76
2023/01/01 07:30:09;;;;;;;11.95;2.50;;;;;;;;;;5058328;28;20078;-77
2023/01/01 07:32:35;;;;;;;9.98;2.15;;;;;;;;;;5039625;28;20459;-76
2023/01/01 07:35:01;;;;;;;9.65;2.00;;;;;;;;;;5040150;28;20654;-76
2023/01/01 07:37:27;;;;;;;17.67;2.55;;;;;;;;;;5056481;28;20644;-77
2023/01/01 07:39:53;;;;;;;10.25;2.38;;;;;;;;;;5055100;28;20049;-76
2023/01/01 07:42:19;;;;;;;13.18;1.95;;;;;;;;;;5044749;28;20048;-76
2023/01/01 07:44:45;;;;;;;18.75;3.03;;;;;;;;;;5038758;28;20048;-77
2023/01/01 07:47:22;;;;;;;18.65;3.35;;;;;;;;;;5051260;28;20159;-77
2023/01/01 07:49:48;;;;;;;15.50;3.10;;;;;;;;;;5034476;28;20555;-76
2023/01/01 07:52:14;;;;;;;12.45;2.13;;;;;;;;;;5039879;28;20055;-75
2023/01/01 07:54:40;;;;;;;16.58;3.38;;;;;;;;;;5071257;27;20045;-75
2023/01/01 07:57:06;;;;;;;16.60;2.78;;;;;;;;;;5054766;28;20040;-75
2023/01/01 07:59:32;;;;;;;19.30;3.33;;;;;;;;;;5054255;28;20064;-75
2023/01/01 08:01:58;;;;;;;16.30;2.95;;;;;;;;;;5037224;28;20060;-75
2023/01/01 08:04:25;;;;;;;25.30;3.80;;;;;;;;;;5022343;28;20037;-75
2023/01/01 08:06:52;;;;;;;14.35;2.95;;;;;;;;;;5041772;28;20059;-76
2023/01/01 08:09:18;;;;;;;22.48;4.15;;;;;;;;;;5054592;28;20530;-80
2023/01/01 08:11:44;;;;;;;15.88;2.80;;;;;;;;;;5026699;28;20123;-81
2023/01/01 08:14:11;;;;;;;17.00;2.92;;;;;;;;;;5058666;28;20082;-79
2023/01/01 08:16:37;;;;;;;19.75;4.05;;;;;;;;;;5050856;28;20089;-80
2023/01/01 08:19:03;;;;;;;15.75;3.03;;;;;;;;;;5055591;28;20048;-79
2023/01/01 08:21:29;;;;;;;21.77;3.20;;;;;;;;;;5054972;28;20047;-79
2023/01/01 08:23:55;;;;;;;20.35;2.72;;;;;;;;;;5038439;28;20044;-79
2023/01/01 08:26:29;;;;;;;20.23;3.38;;;;;;;;;;5034369;28;20295;-79
2023/01/01 08:28:55;;;;;;;14.30;2.67;;;;;;;;;;5055038;28;20052;-79
2023/01/01 08:31:21;;;;;;;18.52;3.92;;;;;;;;;;5063404;28;20055;-79
2023/01/01 08:33:47;;;;;;;16.58;3.22;;;;;;;;;;5066502;28;20135;-80
2023/01/01 08:36:15;;;;;;;25.60;4.32;;;;;;;;;;5073088;28;20048;-79
2023/01/01 08:38:41;;;;;;;24.10;4.10;;;;;;;;;;5052843;28;20430;-80
2023/01/01 08:41:08;;;;;;;12.40;2.67;;;;;;;;;;5056635;28;20048;-79
2023/01/01 08:43:34;;;;;;;17.60;3.15;;;;;;;;;;5038355;28;20425;-79
2023/01/01 08:46:00;;;;;;;19.52;4.03;;;;;;;;;;5058590;28;20032;-78
2023/01/01 08:48:26;;;;;;;23.90;4.22;;;;;;;;;;5016641;28;20048;-79
2023/01/01 08:50:54;;;;;;;23.65;3.50;;;;;;;;;;5049534;28;20048;-79
2023/01/01 08:53:22;;;;;;;26.55;4.43;;;;;;;;;;5039289;28;20761;-78
2023/01/01 08:56:03;;;;;;;17.00;2.88;;;;;;;;;;5019163;28;20188;-80
2023/01/01 08:58:29;;;;;;;19.85;3.80;;;;;;;;;;5057224;28;20948;-79
2023/01/01 09:00:55;;;;;;;28.38;5.18;;;;;;;;;;5084253;28;20032;-80
2023/01/01 09:03:21;;;;;;;16.90;3.30;;;;;;;;;;5064505;28;20040;-79
2023/01/01 09:05:48;;;;;;;25.77;4.68;;;;;;;;;;5063660;28;20165;-80
2023/01/01 09:08:16;;;;;;;19.17;3.58;;;;;;;;;;5062865;28;20079;-80
2023/01/01 09:10:44;;;;;;;20.17;3.90;;;;;;;;;;5053529;28;20197;-80
2023/01/01 09:13:11;;;;;;;26.63;3.75;;;;;;;;;;5052629;28;20443;-80
2023/01/01 09:15:37;;;;;;;21.95;4.40;;;;;;;;;;5043272;28;20036;-81
2023/01/01 09:18:03;;;;;;;16.98;3.47;;;;;;;;;;5057758;28;20042;-80
2023/01/01 09:20:30;;;;;;;26.02;3.35;;;;;;;;;;5053728;28;20067;-79
2023/01/01 09:22:56;;;;;;;23.73;4.00;;;;;;;;;;5036580;28;20078;-79
2023/01/01 09:25:22;;;;;;;22.30;3.83;;;;;;;;;;5033757;28;20062;-79
2023/01/01 09:27:48;;;;;;;27.25;4.20;;;;;;;;;;5053771;28;20047;-80
2023/01/01 09:30:14;;;;;;;32.13;4.60;;;;;;;;;;5055771;28;20097;-80
2023/01/01 09:32:40;;;;;;;24.63;4.15;;;;;;;;;;5055762;28;20052;-81
2023/01/01 09:35:06;;;;;;;15.70;3.47;;;;;;;;;;5053706;28;20048;-80
2023/01/01 09:37:34;;;;;;;24.02;3.88;;;;;;;;;;5039192;28;20128;-81
2023/01/01 09:40:00;;;;;;;20.58;4.35;;;;;;;;;;5031410;28;20091;-80
2023/01/01 09:42:26;;;;;;;23.38;4.72;;;;;;;;;;5049991;28;20047;-80
2023/01/01 09:45:11;;;;;;;15.70;2.95;;;;;;;;;;5055594;28;20047;-81
2023/01/01 09:47:45;;;;;;;22.95;3.60;;;;;;;;;;5054363;28;20039;-80
2023/01/01 09:50:17;;;;;;;14.95;3.42;;;;;;;;;;5071178;28;20048;-80
2023/01/01 09:52:49;;;;;;;20.23;3.88;;;;;;;;;;5059975;28;20123;-80
2023/01/01 09:55:23;;;;;;;21.27;4.97;;;;;;;;;;5045083;28;20142;-80
2023/01/01 09:57:49;;;;;;;21.02;3.70;;;;;;;;;;5051092;28;20047;-81
2023/01/01 10:00:17;;;;;;;24.55;4.70;;;;;;;;;;5032326;28;20070;-80
2023/01/01 10:02:43;;;;;;;15.57;3.67;;;;;;;;;;5037691;28;20043;-80
2023/01/01 10:05:19;;;;;;;20.75;3.85;;;;;;;;;;5035535;28;20114;-80
2023/01/01 10:07:47;;;;;;;18.95;3.10;;;;;;;;;;5049331;28;20044;-80
2023/01/01 10:10:22;;;;;;;20.65;3.50;;;;;;;;;;5035149;28;20754;-80
2023/01/01 10:12:58;;;;;;;18.08;3.47;;;;;;;;;;5048847;28;20040;-80
2023/01/01 10:15:27;;;;;;;22.27;3.83;;;;;;;;;;5033460;28;20047;-81
2023/01/01 10:17:55;;;;;;;21.10;3.58;;;;;;;;;;5054565;28;20043;-81
2023/01/01 10:20:23;;;;;;;26.08;4.22;;;;;;;;;;5048271;28;20069;-80
2023/01/01 10:22:53;;;;;;;27.73;4.60;;;;;;;;;;5052706;28;20484;-81
2023/01/01 10:25:27;;;;;;;23.25;3.65;;;;;;;;;;5054509;28;20106;-81
2023/01/01 10:27:53;;;;;;;24.00;5.43;;;;;;;;;;5053702;28;20635;-81
2023/01/01 10:30:23;;;;;;;22.15;5.10;;;;;;;;;;5040756;28;20341;-80
2023/01/01 10:32:50;;;;;;;21.83;4.10;;;;;;;;;;5037268;28;20136;-81
2023/01/01 10:35:18;;;;;;;22.48;4.03;;;;;;;;;;5051739;28;20153;-80
2023/01/01 10:37:44;;;;;;;20.80;4.38;;;;;;;;;;5049792;28;20043;-80
2023/01/01 10:40:15;;;;;;;27.95;4.68;;;;;;;;;;5044105;28;20901;-79
2023/01/01 10:42:41;;;;;;;22.58;4.63;;;;;;;;;;5073803;28;20106;-80
2023/01/01 10:45:15;;;;;;;16.70;3.47;;;;;;;;;;5074284;28;20086;-80
2023/01/01 10:48:01;;;;;;;17.75;3.75;;;;;;;;;;5048654;28;20088;-80
2023/01/01 10:50:40;;;;;;;16.83;3.42;;;;;;;;;;5054314;28;20340;-79
2023/01/01 10:53:18;;;;;;;20.05;3.97;;;;;;;;;;5047694;28;21788;-80
2023/01/01 10:55:48;;;;;;;15.50;2.63;;;;;;;;;;5057086;28;20055;-80
2023/01/01 10:58:34;;;;;;;21.05;4.03;;;;;;;;;;5053895;28;20088;-76
2023/01/01 11:01:01;;;;;;;15.23;2.97;;;;;;;;;;5060218;28;20044;-76
2023/01/01 11:03:27;;;;;;;29.23;5.10;;;;;;;;;;5079312;28;20490;-77
2023/01/01 11:06:12;;;;;;;14.07;2.97;;;;;;;;;;5064385;28;20040;-76
2023/01/01 11:08:40;;;;;;;14.32;3.47;;;;;;;;;;5062629;28;20051;-76
2023/01/01 11:11:06;;;;;;;17.70;3.10;;;;;;;;;;5049227;28;20052;-76
2023/01/01 11:13:33;;;;;;;17.92;3.30;;;;;;;;;;5060281;28;20656;-76
2023/01/01 11:16:00;;;;;;;20.65;3.13;;;;;;;;;;5063432;28;20633;-76
2023/01/01 11:18:34;;;;;;;21.08;3.35;;;;;;;;;;5064982;28;20054;-76
2023/01/01 11:21:01;;;;;;;16.02;2.75;;;;;;;;;;5052439;28;20052;-77
2023/01/01 11:23:30;;;;;;;20.40;2.88;;;;;;;;;;5052033;28;20480;-75
2023/01/01 11:25:57;;;;;;;16.77;3.30;;;;;;;;;;5049163;28;20051;-76
2023/01/01 11:28:24;;;;;;;11.48;2.22;;;;;;;;;;5037182;28;20070;-77
2023/01/01 11:31:09;;;;;;;15.52;2.95;;;;;;;;;;5053017;28;20044;-76
2023/01/01 11:33:37;;;;;;;11.48;2.45;;;;;;;;;;5051308;28;20149;-76
2023/01/01 11:36:04;;;;;;;19.15;2.50;;;;;;;;;;5051963;28;20913;-77
2023/01/01 11:38:31;;;;;;;17.63;2.65;;;;;;;;;;5052974;28;20048;-76
2023/01/01 11:41:06;;;;;;;12.25;2.47;;;;;;;;;;5035928;28;20095;-75
2023/01/01 11:43:43;;;;;;;13.52;2.60;;;;;;;;;;5046008;28;20101;-76
2023/01/01 11:46:11;;;;;;;14.75;3.05;;;;;;;;;;5053982;28;20734;-77
2023/01/01 11:48:40;;;;;;;11.13;2.35;;;;;;;;;;5052326;28;20040;-76
2023/01/01 11:51:10;;;;;;;12.40;3.08;;;;;;;;;;5046186;28;20090;-76
2023/01/01 11:53:41;;;;;;;13.35;2.15;;;;;;;;;;5037874;28;20575;-76
2023/01/01 11:56:18;;;;;;;10.63;1.80;;;;;;;;;;5039371;28;20055;-76
2023/01/01 11:58:56;;;;;;;11.07;2.40;;;;;;;;;;5050991;28;20048;-76
2023/01/01 12:01:27;;;;;;;16.48;2.83;;;;;;;;;;5052248;28;20048;-76
2023/01/01 12:04:01;;;;;;;16.08;3.55;;;;;;;;;;5050533;28;20438;-76
2023/01/01 12:06:45;;;;;;;17.50;3.53;;;;;;;;;;5049913;28;20089;-76
2023/01/01 12:09:14;;;;;;;21.35;3.28;;;;;;;;;;5052827;28;20044;-76
2023/01/01 12:11:46;;;;;;;19.23;3.30;;;;;;;;;;5053497;28;20044;-75
2023/01/01 12:14:36;;;;;;;15.63;2.45;;;;;;;;;;5037080;28;20780;-76
2023/01/01 12:17:21;;;;;;;18.13;2.85;;;;;;;;;;5072197;27;20136;-76
2023/01/01 12:19:56;;;;;;;18.98;2.50;;;;;;;;;;5069755;28;20041;-75
2023/01/01 12:22:22;;;;;;;16.77;2.60;;;;;;;;;;5070632;28;20056;-76
2023/01/01 12:24:49;;;;;;;11.57;3.20;;;;;;;;;;5061051;28;20052;-76
2023/01/01 12:27:15;;;;;;;15.55;2.80;;;;;;;;;;5060081;28;20043;-73
2023/01/01 12:29:55;;;;;;;5.95;1.80;;;;;;;;;;5056189;28;21365;-73
2023/01/01 12:32:27;;;;;;;12.68;3.33;;;;;;;;;;5054237;28;20045;-72
2023/01/01 12:35:00;;;;;;;19.00;3.47;;;;;;;;;;5051624;28;20101;-74
2023/01/01 12:37:35;;;;;;;13.05;3.03;;;;;;;;;;5050787;28;20103;-75
2023/01/01 12:40:20;;;;;;;16.80;2.78;;;;;;;;;;5056735;28;20349;-75
2023/01/01 12:42:46;;;;;;;16.33;2.50;;;;;;;;;;5053086;28;20052;-74
2023/01/01 12:45:41;;;;;;;18.27;3.53;;;;;;;;;;5050981;28;20036;-73
2023/01/01 12:48:23;;;;;;;15.07;2.40;;;;;;;;;;5020815;28;20109;-74
2023/01/01 12:51:01;;;;;;;26.23;4.65;;;;;;;;;;5054768;28;20044;-74
2023/01/01 12:53:33;;;;;;;21.92;3.35;;;;;;;;;;5051515;28;20617;-73
2023/01/01 12:56:15;;;;;;;24.38;7.25;;;;;;;;;;5046751;28;20171;-73
2023/01/01 12:58:41;;;;;;;17.98;2.97;;;;;;;;;;5054625;28;20050;-73
2023/01/01 13:01:23;;;;;;;58.90;32.63;;;;;;;;;;5041803;28;20098;-73
2023/01/01 13:03:52;;;;;;;10.15;2.58;;;;;;;;;;5033771;28;20064;-73
2023/01/01 13:06:19;;;;;;;10.88;3.00;;;;;;;;;;5046211;28;20036;-74
2023/01/01 13:08:50;;;;;;;17.75;2.50;;;;;;;;;;5031429;28;20449;-74
2023/01/01 13:11:16;;;;;;;21.00;3.55;;;;;;;;;;5053071;28;20653;-74
2023/01/01 13:13:42;;;;;;;12.00;2.15;;;;;;;;;;5032940;28;20040;-74
2023/01/01 13:16:10;;;;;;;10.68;2.38;;;;;;;;;;5038711;28;20150;-71
2023/01/01 13:18:37;;;;;;;22.85;3.42;;;;;;;;;;5044161;28;20045;-73
2023/01/01 13:21:07;;;;;;;16.95;2.80;;;;;;;;;;5052197;28;20055;-73
2023/01/01 13:23:33;;;;;;;18.90;3.40;;;;;;;;;;5014337;28;20052;-73
2023/01/01 13:26:21;;;;;;;16.60;3.25;;;;;;;;;;5034781;28;20404;-72
2023/01/01 13:28:56;;;;;;;17.38;4.22;;;;;;;;;;5052624;28;20094;-73
2023/01/01 13:31:38;;;;;;;16.38;3.05;;;;;;;;;;5025831;28;20575;-74
2023/01/01 13:34:23;;;;;;;17.13;3.38;;;;;;;;;;5036544;28;20492;-73
2023/01/01 13:36:49;;;;;;;17.80;2.92;;;;;;;;;;5056680;28;20143;-74
2023/01/01 13:39:35;;;;;;;19.77;2.97;;;;;;;;;;5035849;28;20488;-74
2023/01/01 13:42:01;;;;;;;12.50;2.70;;;;;;;;;;5014872;28;20051;-74
2023/01/01 13:44:27;;;;;;;17.35;4.03;;;;;;;;;;5052756;28;20047;-74
2023/01/01 13:46:53;;;;;;;11.55;2.47;;;;;;;;;;5055526;28;20074;-74
2023/01/01 13:49:32;;;;;;;17.70;2.38;;;;;;;;;;5038656;28;20052;-74
2023/01/01 13:52:08;;;;;;;19.75;3.40;;;;;;;;;;5053851;28;20635;-74
2023/01/01 13:54:34;;;;;;;14.35;2.58;;;;;;;;;;5053611;28;20060;-73
2023/01/01 13:57:02;;;;;;;12.93;2.85;;;;;;;;;;5036059;28;20484;-73
2023/01/01 13:59:44;;;;;;;14.88;2.60;;;;;;;;;;5025823;28;20036;-73
2023/01/01 14:02:16;;;;;;;14.77;3.28;;;;;;;;;;5050228;28;20093;-74
2023/01/01 14:04:46;;;;;;;13.43;2.35;;;;;;;;;;5072953;28;20032;-74
2023/01/01 14:07:21;;;;;;;15.77;2.97;;;;;;;;;;5075871;28;20044;-73
2023/01/01 14:09:47;;;;;;;15.32;3.30;;;;;;;;;;5041932;28;20143;-74
2023/01/01 14:12:17;;;;;;;13.90;2.60;;;;;;;;;;5045156;28;20049;-74
2023/01/01 14:14:44;;;;;;;20.48;3.95;;;;;;;;;;5054676;28;20068;-73
2023/01/01 14:17:12;;;;;;;15.82;2.85;;;;;;;;;;5052744;28;20058;-74
2023/01/01 14:19:40;;;;;;;20.77;3.28;;;;;;;;;;5021952;28;20514;-73
2023/01/01 14:22:10;;;;;;;15.65;2.95;;;;;;;;;;5053291;28;20383;-74
2023/01/01 14:24:40;;;;;;;18.80;3.15;;;;;;;;;;5027076;28;20048;-74
2023/01/01 14:27:06;;;;;;;19.98;3.05;;;;;;;;;;5048377;28;20051;-74
2023/01/01 14:29:32;;;;;;;19.08;2.72;;;;;;;;;;5030780;28;20548;-74
2023/01/01 14:32:01;;;;;;;16.42;2.60;;;;;;;;;;5038663;28;20097;-76
2023/01/01 14:34:27;;;;;;;13.52;2.78;;;;;;;;;;5023468;28;20455;-75
2023/01/01 14:36:57;;;;;;;19.00;2.78;;;;;;;;;;5057514;28;20681;-74
2023/01/01 14:39:27;;;;;;;23.73;3.75;;;;;;;;;;5038819;28;20123;-75
2023/01/01 14:41:54;;;;;;;24.55;3.53;;;;;;;;;;5039816;28;20052;-75
2023/01/01 14:44:24;;;;;;;15.90;2.92;;;;;;;;;;5046285;28;20521;-75
2023/01/01 14:46:51;;;;;;;18.95;3.45;;;;;;;;;;5058833;28;20061;-75